Time;durP1;ratioP1;P1;durP2;ratioP2;P2;SDS_P1;SDS_P2;PMS_P1;PMS_P2;Temp;Humidity;BMP_temperature;BMP_pressure;BME280_temperature;BME280_humidity;BME280_pressure;Samples;Min_cycle;Max_cycle;Signal;HPM_P1;HPM_P2
2021/10/10 00:04:23;;;;;;;5.10;3.77;;;;;;;;;;10294633;28;20121;-92
2021/10/10 00:09:24;;;;;;;5.33;2.90;;;;;;;;;;10296435;28;20035;-94
2021/10/10 00:14:24;;;;;;;5.67;3.70;;;;;;;;;;10298391;28;20085;-91
2021/10/10 00:19:25;;;;;;;8.75;3.85;;;;;;;;;;10296139;28;20735;-90
2021/10/10 00:24:25;;;;;;;12.07;3.43;;;;;;;;;;10296515;28;20034;-90
2021/10/10 00:29:25;;;;;;;8.17;3.60;;;;;;;;;;10294932;28;20281;-88
2021/10/10 00:34:26;;;;;;;16.57;4.07;;;;;;;;;;10295113;28;20031;-90
2021/10/10 00:39:26;;;;;;;10.27;3.40;;;;;;;;;;10295622;28;20296;-89
2021/10/10 00:44:26;;;;;;;15.77;3.57;;;;;;;;;;10296326;28;20053;-91
2021/10/10 00:49:27;;;;;;;13.93;3.50;;;;;;;;;;10294152;28;20062;-92
2021/10/10 00:54:28;;;;;;;12.23;3.03;;;;;;;;;;10295736;28;20061;-91
2021/10/10 00:59:29;;;;;;;6.85;3.25;;;;;;;;;;10310539;28;20031;-91
2021/10/10 01:04:29;;;;;;;8.82;3.33;;;;;;;;;;10294202;28;20031;-90
2021/10/10 01:09:31;;;;;;;7.50;3.27;;;;;;;;;;10295977;28;20138;-93
2021/10/10 01:14:35;;;;;;;8.27;3.08;;;;;;;;;;10294191;28;20308;-93
2021/10/10 01:19:36;;;;;;;7.65;2.97;;;;;;;;;;10294058;28;20038;-94
2021/10/10 01:24:38;;;;;;;14.15;3.88;;;;;;;;;;10294160;28;20035;-94
2021/10/10 01:29:38;;;;;;;6.65;3.55;;;;;;;;;;10295258;28;20037;-96
2021/10/10 01:34:46;;;;;;;7.83;2.87;;;;;;;;;;10297981;28;20030;-94
2021/10/10 01:39:46;;;;;;;6.63;3.40;;;;;;;;;;10283174;28;20062;-96
2021/10/10 01:44:47;;;;;;;6.73;2.90;;;;;;;;;;10294624;28;20070;-94
2021/10/10 01:49:47;;;;;;;7.90;3.30;;;;;;;;;;10294364;28;20035;-94
2021/10/10 01:54:47;;;;;;;4.90;2.70;;;;;;;;;;10294539;28;20117;-93
2021/10/10 01:59:48;;;;;;;5.40;2.80;;;;;;;;;;10290920;28;20766;-94
2021/10/10 02:04:48;;;;;;;8.23;2.95;;;;;;;;;;10308254;28;20054;-93
2021/10/10 02:09:49;;;;;;;6.07;2.90;;;;;;;;;;10292300;28;20388;-93
2021/10/10 02:14:49;;;;;;;11.77;2.70;;;;;;;;;;10291773;28;20050;-91
2021/10/10 02:19:50;;;;;;;10.87;2.87;;;;;;;;;;10291679;28;20034;-93
2021/10/10 02:24:50;;;;;;;8.73;3.05;;;;;;;;;;10292309;28;20030;-89
2021/10/10 02:29:50;;;;;;;11.90;3.03;;;;;;;;;;10292861;28;20420;-91
2021/10/10 02:34:51;;;;;;;6.70;2.80;;;;;;;;;;10291471;28;20054;-91
2021/10/10 02:39:52;;;;;;;4.50;2.80;;;;;;;;;;10291919;28;20062;-93
2021/10/10 02:44:52;;;;;;;8.40;2.70;;;;;;;;;;10292658;28;20129;-90
2021/10/10 02:49:53;;;;;;;12.27;3.20;;;;;;;;;;10288665;28;20042;-90
2021/10/10 02:54:53;;;;;;;4.93;2.73;;;;;;;;;;10297353;28;20261;-92
2021/10/10 02:59:53;;;;;;;5.87;3.03;;;;;;;;;;10300268;28;20121;-91
2021/10/10 03:04:53;;;;;;;7.33;2.67;;;;;;;;;;10299525;28;20400;-91
2021/10/10 03:09:54;;;;;;;6.37;2.70;;;;;;;;;;10299503;28;20042;-91
2021/10/10 03:14:54;;;;;;;8.07;2.87;;;;;;;;;;10298427;28;20043;-91
2021/10/10 03:19:54;;;;;;;8.57;2.90;;;;;;;;;;10299414;28;20034;-92
2021/10/10 03:24:55;;;;;;;4.63;2.80;;;;;;;;;;10299342;28;20041;-91
2021/10/10 03:29:56;;;;;;;4.47;2.50;;;;;;;;;;10298097;28;20042;-91
2021/10/10 03:34:56;;;;;;;6.82;2.40;;;;;;;;;;10298917;28;20134;-91
2021/10/10 03:39:57;;;;;;;6.22;2.80;;;;;;;;;;10298634;28;20230;-90
2021/10/10 03:44:57;;;;;;;3.97;2.13;;;;;;;;;;10297771;28;20042;-89
2021/10/10 03:49:57;;;;;;;5.07;2.75;;;;;;;;;;10298172;28;20078;-91
2021/10/10 04:00:11;;;;;;;5.63;2.53;;;;;;;;;;10299849;28;20034;-92
2021/10/10 04:05:36;;;;;;;7.80;2.30;;;;;;;;;;10300345;28;20070;-90
2021/10/10 04:10:36;;;;;;;4.28;2.72;;;;;;;;;;10300043;28;20410;-90
2021/10/10 04:15:37;;;;;;;5.20;2.87;;;;;;;;;;10297267;28;20023;-90
2021/10/10 04:20:37;;;;;;;5.18;2.20;;;;;;;;;;10297056;28;20117;-90
2021/10/10 04:25:37;;;;;;;5.57;2.97;;;;;;;;;;10297329;28;20058;-91
2021/10/10 04:30:38;;;;;;;4.60;2.57;;;;;;;;;;10297250;28;20105;-92
2021/10/10 04:35:38;;;;;;;4.97;3.50;;;;;;;;;;10296637;28;20018;-94
2021/10/10 04:40:38;;;;;;;7.33;3.37;;;;;;;;;;10295204;28;20027;-93
2021/10/10 04:45:39;;;;;;;7.53;6.83;;;;;;;;;;10296003;28;20061;-92
2021/10/10 04:50:39;;;;;;;6.73;6.13;;;;;;;;;;10304622;28;20027;-90
2021/10/10 04:55:39;;;;;;;6.90;2.67;;;;;;;;;;10288592;28;20433;-91
2021/10/10 05:00:40;;;;;;;4.90;2.37;;;;;;;;;;10295666;28;20373;-91
2021/10/10 05:05:41;;;;;;;3.83;2.40;;;;;;;;;;10292553;28;20666;-88
2021/10/10 05:10:42;;;;;;;4.30;3.10;;;;;;;;;;10294414;28;20647;-89
2021/10/10 05:15:42;;;;;;;6.33;2.50;;;;;;;;;;10290789;28;20038;-89
2021/10/10 05:20:42;;;;;;;2.97;2.40;;;;;;;;;;10277233;28;20030;-88
2021/10/10 05:25:43;;;;;;;7.80;2.87;;;;;;;;;;10279825;28;20523;-88
2021/10/10 05:30:43;;;;;;;3.05;2.50;;;;;;;;;;10277479;28;20386;-89
2021/10/10 05:35:44;;;;;;;4.27;2.07;;;;;;;;;;10277499;28;20034;-88
2021/10/10 05:40:44;;;;;;;4.05;2.70;;;;;;;;;;10289364;28;20603;-88
2021/10/10 05:45:44;;;;;;;3.20;2.30;;;;;;;;;;10287393;28;20271;-86
2021/10/10 05:50:45;;;;;;;5.53;2.83;;;;;;;;;;10294876;28;20300;-84
2021/10/10 05:55:46;;;;;;;8.73;2.53;;;;;;;;;;10308061;28;20026;-93
2021/10/10 06:00:46;;;;;;;6.05;2.53;;;;;;;;;;10298369;28;20109;-93
2021/10/10 06:05:47;;;;;;;7.25;3.10;;;;;;;;;;10292169;28;20089;-93
2021/10/10 06:10:47;;;;;;;4.00;3.00;;;;;;;;;;10299386;28;20049;-93
2021/10/10 06:15:49;;;;;;;5.30;3.05;;;;;;;;;;10309033;28;20074;-93
2021/10/10 06:20:50;;;;;;;22.77;5.28;;;;;;;;;;10289175;28;20039;-88
2021/10/10 06:25:50;;;;;;;18.03;4.87;;;;;;;;;;10285532;28;20432;-93
2021/10/10 06:30:52;;;;;;;10.30;5.20;;;;;;;;;;10279807;28;20030;-88
2021/10/10 06:35:52;;;;;;;15.77;5.07;;;;;;;;;;10286762;28;20062;-88
2021/10/10 06:40:52;;;;;;;13.05;4.68;;;;;;;;;;10289086;28;20066;-89
2021/10/10 06:45:53;;;;;;;17.87;5.70;;;;;;;;;;10284800;28;20050;-92
2021/10/10 06:50:53;;;;;;;12.07;5.43;;;;;;;;;;10273456;28;20066;-82
2021/10/10 06:55:53;;;;;;;21.93;6.60;;;;;;;;;;10289140;28;20034;-82
2021/10/10 07:00:54;;;;;;;16.73;5.40;;;;;;;;;;10290771;28;20034;-83
2021/10/10 07:05:54;;;;;;;9.77;4.57;;;;;;;;;;10292275;28;20515;-85
2021/10/10 07:10:54;;;;;;;8.57;4.63;;;;;;;;;;10291991;28;20031;-84
2021/10/10 07:15:55;;;;;;;12.50;4.63;;;;;;;;;;10292265;28;20027;-86
2021/10/10 07:26:00;;;;;;;10.45;4.40;;;;;;;;;;10292895;28;20401;-85
2021/10/10 07:31:02;;;;;;;12.07;4.60;;;;;;;;;;10292556;28;20085;-85
2021/10/10 07:36:02;;;;;;;7.85;4.25;;;;;;;;;;10294466;28;20457;-86
2021/10/10 07:41:04;;;;;;;7.32;4.28;;;;;;;;;;10296248;28;20026;-85
2021/10/10 07:46:17;;;;;;;8.07;3.92;;;;;;;;;;10291737;23;20055;-85
2021/10/10 07:51:18;;;;;;;8.90;4.30;;;;;;;;;;10258504;28;20118;-85
2021/10/10 07:56:19;;;;;;;11.18;4.30;;;;;;;;;;10273331;28;20035;-86
2021/10/10 08:01:20;;;;;;;7.10;4.00;;;;;;;;;;10258805;28;20027;-86
2021/10/10 08:06:20;;;;;;;6.55;3.63;;;;;;;;;;10258320;28;20093;-87
2021/10/10 08:11:21;;;;;;;6.50;3.40;;;;;;;;;;10257685;28;20046;-86
2021/10/10 08:16:21;;;;;;;8.37;4.10;;;;;;;;;;10257974;28;20378;-86
2021/10/10 08:21:21;;;;;;;10.33;4.33;;;;;;;;;;10256938;28;20970;-87
2021/10/10 08:26:22;;;;;;;6.27;3.10;;;;;;;;;;10257925;29;20043;-87
2021/10/10 08:31:23;;;;;;;6.85;3.83;;;;;;;;;;10257748;28;20045;-87
2021/10/10 08:36:24;;;;;;;7.05;3.55;;;;;;;;;;10257156;28;20039;-87
2021/10/10 08:41:30;;;;;;;10.60;4.17;;;;;;;;;;10257298;29;20485;-86
2021/10/10 08:46:34;;;;;;;6.10;3.63;;;;;;;;;;10255401;29;20312;-86
2021/10/10 08:51:35;;;;;;;5.55;3.72;;;;;;;;;;10256447;28;20031;-86
2021/10/10 08:56:35;;;;;;;6.78;3.78;;;;;;;;;;10270486;28;20058;-87
2021/10/10 09:01:38;;;;;;;6.40;3.73;;;;;;;;;;10271597;28;20036;-85
2021/10/10 09:06:40;;;;;;;6.97;3.70;;;;;;;;;;10257104;28;20450;-87
2021/10/10 09:11:44;;;;;;;4.70;3.17;;;;;;;;;;10255652;28;20114;-86
2021/10/10 09:16:44;;;;;;;6.82;3.53;;;;;;;;;;10255272;28;20078;-86
2021/10/10 09:21:57;;;;;;;4.57;3.23;;;;;;;;;;10254676;29;20429;-86
2021/10/10 09:26:58;;;;;;;10.85;3.63;;;;;;;;;;10255119;28;20106;-86
2021/10/10 09:32:18;;;;;;;4.37;3.40;;;;;;;;;;10254798;28;20118;-85
2021/10/10 09:37:31;;;;;;;5.82;3.25;;;;;;;;;;10255099;28;20027;-85
2021/10/10 09:42:37;;;;;;;7.50;4.10;;;;;;;;;;10254666;28;20114;-85
2021/10/10 09:47:59;;;;;;;6.38;3.70;;;;;;;;;;10254622;28;20470;-86
2021/10/10 09:53:00;;;;;;;11.73;3.42;;;;;;;;;;10253296;28;20470;-85
2021/10/10 09:58:02;;;;;;;5.95;3.30;;;;;;;;;;10254576;28;20485;-85
2021/10/10 10:03:08;;;;;;;7.15;3.55;;;;;;;;;;10254776;28;20426;-85
2021/10/10 10:08:08;;;;;;;4.47;3.10;;;;;;;;;;10256965;28;20035;-85
2021/10/10 10:13:09;;;;;;;4.03;3.33;;;;;;;;;;10256837;28;20050;-86
2021/10/10 10:18:09;;;;;;;5.65;3.00;;;;;;;;;;10255456;28;20409;-85
2021/10/10 10:23:10;;;;;;;5.20;3.20;;;;;;;;;;10268914;28;20126;-85
2021/10/10 10:28:10;;;;;;;4.55;3.17;;;;;;;;;;10253921;28;20398;-85
2021/10/10 10:33:11;;;;;;;6.93;3.13;;;;;;;;;;10253135;29;20089;-86
2021/10/10 10:38:12;;;;;;;5.47;3.30;;;;;;;;;;10252548;29;20470;-85
2021/10/10 10:43:13;;;;;;;4.55;3.33;;;;;;;;;;10252847;28;20616;-86
2021/10/10 10:48:28;;;;;;;4.57;3.30;;;;;;;;;;10253537;28;20047;-85
2021/10/10 10:53:29;;;;;;;9.90;3.38;;;;;;;;;;10253495;28;20483;-86
2021/10/10 10:58:44;;;;;;;7.73;3.50;;;;;;;;;;10253044;28;20126;-86
2021/10/10 11:03:46;;;;;;;3.78;3.00;;;;;;;;;;10252736;28;20035;-85
2021/10/10 11:08:46;;;;;;;5.05;3.42;;;;;;;;;;10251881;28;20053;-85
2021/10/10 11:13:51;;;;;;;3.47;2.58;;;;;;;;;;10252832;28;20034;-84
2021/10/10 11:18:52;;;;;;;4.60;3.10;;;;;;;;;;10260245;28;20043;-85
2021/10/10 11:23:55;;;;;;;3.53;2.75;;;;;;;;;;10260495;28;20031;-85
2021/10/10 11:28:57;;;;;;;5.85;3.25;;;;;;;;;;10260160;28;20077;-85
2021/10/10 11:34:00;;;;;;;5.10;3.20;;;;;;;;;;10259921;28;20474;-85
2021/10/10 11:39:04;;;;;;;5.18;3.42;;;;;;;;;;10259049;28;20070;-86
2021/10/10 11:44:09;;;;;;;5.13;3.03;;;;;;;;;;10258888;29;20093;-85
2021/10/10 11:49:28;;;;;;;3.50;2.72;;;;;;;;;;10258601;28;20450;-86
2021/10/10 11:54:41;;;;;;;4.82;2.83;;;;;;;;;;10259558;28;20032;-86
2021/10/10 11:59:52;;;;;;;3.83;2.90;;;;;;;;;;10258886;28;20035;-85
2021/10/10 12:05:05;;;;;;;4.32;2.83;;;;;;;;;;10246319;29;20031;-86
2021/10/10 12:10:07;;;;;;;4.60;3.35;;;;;;;;;;10258331;28;20031;-86
2021/10/10 12:15:09;;;;;;;4.60;2.92;;;;;;;;;;10258648;28;20118;-86
2021/10/10 12:20:15;;;;;;;4.65;2.70;;;;;;;;;;10257938;28;20167;-85
2021/10/10 12:25:39;;;;;;;3.70;2.53;;;;;;;;;;10257560;28;20035;-85
2021/10/10 12:30:59;;;;;;;4.50;3.13;;;;;;;;;;10256583;29;20027;-86
2021/10/10 12:36:00;;;;;;;4.50;2.95;;;;;;;;;;10245263;29;20354;-85
2021/10/10 12:41:22;;;;;;;4.43;2.97;;;;;;;;;;10256374;28;20051;-85
2021/10/10 12:46:25;;;;;;;3.88;2.67;;;;;;;;;;10257262;28;20524;-86
2021/10/10 12:51:25;;;;;;;4.10;3.10;;;;;;;;;;10256693;28;20050;-86
2021/10/10 12:56:27;;;;;;;4.20;2.70;;;;;;;;;;10256671;28;20359;-86
2021/10/10 13:01:32;;;;;;;6.38;2.97;;;;;;;;;;10256246;28;20035;-85
2021/10/10 13:06:32;;;;;;;3.88;2.90;;;;;;;;;;10256483;28;20035;-86
2021/10/10 13:11:32;;;;;;;7.93;3.43;;;;;;;;;;10256197;28;20031;-86
2021/10/10 13:16:33;;;;;;;6.70;3.17;;;;;;;;;;10255933;28;20023;-86
2021/10/10 13:21:33;;;;;;;8.10;3.03;;;;;;;;;;10255294;28;20154;-86
2021/10/10 13:26:35;;;;;;;4.35;3.03;;;;;;;;;;10255687;28;20038;-85
2021/10/10 13:31:35;;;;;;;5.22;2.67;;;;;;;;;;10254532;28;20485;-86
2021/10/10 13:36:36;;;;;;;3.15;2.83;;;;;;;;;;10255145;28;20035;-86
2021/10/10 13:41:37;;;;;;;5.18;2.60;;;;;;;;;;10254555;28;20062;-86
2021/10/10 13:46:37;;;;;;;2.90;2.60;;;;;;;;;;10256958;28;20086;-86
2021/10/10 13:51:38;;;;;;;3.35;2.67;;;;;;;;;;10256418;28;20356;-85
2021/10/10 13:56:38;;;;;;;4.20;3.03;;;;;;;;;;10254824;28;20060;-86
2021/10/10 14:01:38;;;;;;;5.07;2.93;;;;;;;;;;10254778;28;20071;-86
2021/10/10 14:06:39;;;;;;;3.72;3.00;;;;;;;;;;10253794;28;20054;-85
2021/10/10 14:11:39;;;;;;;3.87;2.80;;;;;;;;;;10254089;28;20414;-85
2021/10/10 14:16:39;;;;;;;3.23;2.53;;;;;;;;;;10253805;28;20039;-86
2021/10/10 14:21:40;;;;;;;4.27;2.80;;;;;;;;;;10253202;28;20039;-86
2021/10/10 14:26:40;;;;;;;2.83;2.43;;;;;;;;;;10248328;29;20043;-86
2021/10/10 14:31:41;;;;;;;3.10;2.80;;;;;;;;;;10252922;28;20071;-86
2021/10/10 14:36:41;;;;;;;7.70;2.80;;;;;;;;;;10253529;28;20039;-86
2021/10/10 14:41:49;;;;;;;4.23;3.07;;;;;;;;;;10253588;28;20031;-86
2021/10/10 14:47:01;;;;;;;5.20;2.80;;;;;;;;;;10251578;28;20474;-84
2021/10/10 14:52:03;;;;;;;4.55;3.05;;;;;;;;;;10254187;28;20023;-85
2021/10/10 14:57:06;;;;;;;5.50;3.00;;;;;;;;;;10261038;28;20027;-86
2021/10/10 15:02:07;;;;;;;3.55;2.53;;;;;;;;;;10260995;28;20035;-86
2021/10/10 15:07:13;;;;;;;3.88;2.63;;;;;;;;;;10258961;29;20039;-85
2021/10/10 15:12:13;;;;;;;3.65;2.80;;;;;;;;;;10252535;29;20514;-86
2021/10/10 15:17:14;;;;;;;3.50;2.67;;;;;;;;;;10260564;28;20114;-91
2021/10/10 15:22:14;;;;;;;3.30;2.70;;;;;;;;;;10274879;28;20096;-88
2021/10/10 15:27:14;;;;;;;4.60;2.97;;;;;;;;;;10259753;28;20118;-88
2021/10/10 15:32:15;;;;;;;4.30;2.77;;;;;;;;;;10258670;28;20031;-89
2021/10/10 15:37:15;;;;;;;4.47;2.80;;;;;;;;;;10259607;29;20073;-86
2021/10/10 15:42:15;;;;;;;8.87;2.67;;;;;;;;;;10259286;28;20042;-85
2021/10/10 15:47:16;;;;;;;3.85;2.85;;;;;;;;;;10253009;28;20297;-84
2021/10/10 15:52:16;;;;;;;4.45;2.47;;;;;;;;;;10256190;29;20054;-84
2021/10/10 15:57:17;;;;;;;5.73;3.23;;;;;;;;;;10258545;28;20042;-84
2021/10/10 16:02:17;;;;;;;4.37;2.77;;;;;;;;;;10253861;28;20351;-85
2021/10/10 16:07:17;;;;;;;9.93;2.70;;;;;;;;;;10260364;28;20576;-83
2021/10/10 16:12:18;;;;;;;6.80;3.20;;;;;;;;;;10258311;28;20038;-90
2021/10/10 16:17:18;;;;;;;5.63;3.00;;;;;;;;;;10260498;28;20118;-93
2021/10/10 16:22:23;;;;;;;3.70;2.80;;;;;;;;;;10260858;28;20104;-92
2021/10/10 16:27:23;;;;;;;4.32;2.95;;;;;;;;;;10261413;28;20273;-93
2021/10/10 16:32:24;;;;;;;4.97;2.60;;;;;;;;;;10257998;29;20035;-94
2021/10/10 16:42:36;;;;;;;4.50;2.90;;;;;;;;;;10257980;28;20273;-92
2021/10/10 16:47:38;;;;;;;6.60;3.07;;;;;;;;;;10257196;28;20039;-93
2021/10/10 16:52:40;;;;;;;5.75;2.90;;;;;;;;;;10246638;28;20042;-90
2021/10/10 16:57:40;;;;;;;7.03;3.13;;;;;;;;;;10256249;28;20485;-90
2021/10/10 17:02:41;;;;;;;4.27;2.70;;;;;;;;;;10255505;28;20027;-92
2021/10/10 17:07:41;;;;;;;6.80;3.00;;;;;;;;;;10254780;28;20842;-92
2021/10/10 17:12:41;;;;;;;3.17;2.83;;;;;;;;;;10271832;28;20059;-90
2021/10/10 17:17:42;;;;;;;6.30;3.20;;;;;;;;;;10255630;28;20035;-92
2021/10/10 17:22:42;;;;;;;6.77;3.47;;;;;;;;;;10272258;28;20031;-91
2021/10/10 17:27:43;;;;;;;7.17;3.00;;;;;;;;;;10259580;28;20402;-89
2021/10/10 17:32:44;;;;;;;9.18;3.53;;;;;;;;;;10254867;29;20031;-90
2021/10/10 17:37:45;;;;;;;5.72;3.33;;;;;;;;;;10252257;28;20042;-91
2021/10/10 17:42:45;;;;;;;4.75;2.97;;;;;;;;;;10253558;28;20047;-89
2021/10/10 17:47:46;;;;;;;4.22;2.72;;;;;;;;;;10251213;28;20054;-90
2021/10/10 17:52:46;;;;;;;4.37;2.80;;;;;;;;;;10254736;29;20144;-87
2021/10/10 17:57:49;;;;;;;7.88;3.63;;;;;;;;;;10252930;28;20755;-90
2021/10/10 18:13:11;;;;;;;8.77;3.63;;;;;;;;;;10264181;28;20031;-87
2021/10/10 18:18:12;;;;;;;9.93;3.53;;;;;;;;;;10252154;28;20462;-87
2021/10/10 18:23:12;;;;;;;9.93;3.45;;;;;;;;;;10252660;28;20156;-89
2021/10/10 18:28:12;;;;;;;9.77;3.60;;;;;;;;;;10255864;28;20354;-89
2021/10/10 18:33:13;;;;;;;9.32;3.63;;;;;;;;;;10252194;28;20474;-89
2021/10/10 18:38:13;;;;;;;5.65;2.97;;;;;;;;;;10253361;28;20027;-89
2021/10/10 18:43:14;;;;;;;6.00;2.90;;;;;;;;;;10252694;28;20054;-89
2021/10/10 18:48:14;;;;;;;5.13;3.30;;;;;;;;;;10252982;28;20412;-89
2021/10/10 18:53:14;;;;;;;10.10;3.50;;;;;;;;;;10253040;28;20277;-89
2021/10/10 18:58:15;;;;;;;8.48;4.05;;;;;;;;;;10267608;28;20033;-89
2021/10/10 19:03:15;;;;;;;5.13;3.03;;;;;;;;;;10253107;28;20027;-89
2021/10/10 19:08:16;;;;;;;10.63;3.30;;;;;;;;;;10252497;28;20114;-89
2021/10/10 19:13:16;;;;;;;29.97;4.03;;;;;;;;;;10252485;28;20035;-87
2021/10/10 19:18:17;;;;;;;6.30;3.88;;;;;;;;;;10248998;28;20341;-87
2021/10/10 19:23:18;;;;;;;9.75;3.40;;;;;;;;;;10249887;29;20035;-87
2021/10/10 19:28:20;;;;;;;6.30;3.83;;;;;;;;;;10251177;28;20079;-89
2021/10/10 19:33:20;;;;;;;10.43;3.60;;;;;;;;;;10248246;28;20031;-89
2021/10/10 19:38:22;;;;;;;5.40;3.10;;;;;;;;;;10265988;28;20039;-90
2021/10/10 19:43:22;;;;;;;8.15;3.03;;;;;;;;;;10251553;23;20318;-90
2021/10/10 19:48:23;;;;;;;10.93;3.60;;;;;;;;;;10217427;29;20047;-88
2021/10/10 19:53:23;;;;;;;16.40;4.13;;;;;;;;;;10220499;29;20146;-88
2021/10/10 19:58:24;;;;;;;13.40;4.60;;;;;;;;;;10221024;28;20286;-87
2021/10/10 20:03:24;;;;;;;12.82;4.60;;;;;;;;;;10218452;29;20032;-87
2021/10/10 20:08:24;;;;;;;8.93;3.70;;;;;;;;;;10215549;29;20050;-87
2021/10/10 20:13:25;;;;;;;15.47;4.30;;;;;;;;;;10207316;28;20016;-87
2021/10/10 20:18:26;;;;;;;11.85;4.22;;;;;;;;;;10206291;29;20282;-86
2021/10/10 20:23:26;;;;;;;14.30;4.18;;;;;;;;;;10208287;29;20028;-86
2021/10/10 20:28:27;;;;;;;8.63;3.97;;;;;;;;;;10207945;29;20466;-86
2021/10/10 20:33:33;;;;;;;8.57;3.92;;;;;;;;;;10204797;29;20036;-87
2021/10/10 20:38:34;;;;;;;8.07;3.70;;;;;;;;;;10207483;29;20032;-87
2021/10/10 20:43:35;;;;;;;8.85;4.03;;;;;;;;;;10204818;28;20115;-87
2021/10/10 20:48:35;;;;;;;8.77;3.80;;;;;;;;;;10204599;28;20039;-88
2021/10/10 20:53:36;;;;;;;6.18;3.95;;;;;;;;;;10207871;29;20348;-87
2021/10/10 20:58:36;;;;;;;6.67;3.20;;;;;;;;;;10216478;29;20032;-88
2021/10/10 21:03:37;;;;;;;25.40;3.90;;;;;;;;;;10211975;29;20102;-85
2021/10/10 21:08:37;;;;;;;6.43;3.80;;;;;;;;;;10213023;29;20054;-89
2021/10/10 21:13:37;;;;;;;9.63;3.83;;;;;;;;;;10206440;29;20115;-88
2021/10/10 21:18:38;;;;;;;9.93;3.63;;;;;;;;;;10207227;29;20044;-89
2021/10/10 21:23:38;;;;;;;11.38;4.50;;;;;;;;;;10207080;29;20039;-88
2021/10/10 21:38:43;;;;;;;7.82;3.95;;;;;;;;;;10215719;29;20027;-86
2021/10/10 21:43:43;;;;;;;8.80;3.88;;;;;;;;;;10202932;29;20130;-87
2021/10/10 21:48:44;;;;;;;7.07;3.20;;;;;;;;;;10230852;28;20066;-90
2021/10/10 21:53:45;;;;;;;22.00;3.92;;;;;;;;;;10213484;29;20028;-91
2021/10/10 21:58:46;;;;;;;20.00;3.90;;;;;;;;;;10209799;29;20031;-91
2021/10/10 22:03:46;;;;;;;18.67;3.87;;;;;;;;;;10211267;29;20482;-93
2021/10/10 22:08:46;;;;;;;9.00;3.60;;;;;;;;;;10212152;29;20036;-91
2021/10/10 22:13:50;;;;;;;7.83;3.30;;;;;;;;;;10214854;29;20527;-90
2021/10/10 22:18:51;;;;;;;7.45;3.90;;;;;;;;;;10215950;29;20035;-91
2021/10/10 22:24:12;;;;;;;9.75;3.47;;;;;;;;;;10216592;29;20135;-92
2021/10/10 22:34:33;;;;;;;6.10;3.60;;;;;;;;;;10215471;29;20040;-92
2021/10/10 22:39:33;;;;;;;11.20;3.47;;;;;;;;;;10213863;29;20028;-91
2021/10/10 22:44:34;;;;;;;6.17;3.00;;;;;;;;;;10213176;28;20058;-91
2021/10/10 22:49:34;;;;;;;7.72;3.53;;;;;;;;;;10214037;29;20052;-92
2021/10/10 22:54:34;;;;;;;6.37;3.10;;;;;;;;;;10213171;28;20031;-90
2021/10/10 22:59:35;;;;;;;7.27;3.13;;;;;;;;;;10214516;29;20036;-91
2021/10/10 23:04:35;;;;;;;5.87;3.50;;;;;;;;;;10213456;29;20111;-91
2021/10/10 23:09:36;;;;;;;6.03;3.53;;;;;;;;;;10214222;29;20111;-92
2021/10/10 23:14:36;;;;;;;8.55;3.30;;;;;;;;;;10220937;29;20042;-93
2021/10/10 23:19:36;;;;;;;6.30;3.33;;;;;;;;;;10221273;29;20541;-92
2021/10/10 23:24:37;;;;;;;4.95;3.10;;;;;;;;;;10220980;29;20031;-92
2021/10/10 23:29:37;;;;;;;8.10;2.80;;;;;;;;;;10221490;29;20062;-93
2021/10/10 23:34:37;;;;;;;4.90;2.80;;;;;;;;;;10219896;29;20371;-95
2021/10/10 23:39:38;;;;;;;3.90;2.80;;;;;;;;;;10220754;29;20027;-94
2021/10/10 23:44:38;;;;;;;8.97;3.20;;;;;;;;;;10220673;29;20099;-89
2021/10/10 23:49:39;;;;;;;8.13;3.30;;;;;;;;;;10220617;29;20031;-90
2021/10/10 23:54:40;;;;;;;7.60;2.85;;;;;;;;;;10219417;29;20031;-89
2021/10/10 23:59:41;;;;;;;4.20;2.65;;;;;;;;;;10219864;29;20036;-91
